Boiling Springs, NC

4:02 PM EDT on July 23, 2016 (GMT -0400)
Lattimore | | Change Station

Elev 935 ft 35.31 °N, 81.66 °W | Updated 1 minute ago

Clear
Clear
93.4 °F
Feels Like 102 °F
N
1.1
Wind Variable Wind from SSE

Today
High -- | Low -- °F
--% Chance of Precip.
Yesterday
High -- | Low -- °F
Precip. -- in
Pressure 29.98 in
Visibility 10.0 miles
Clouds Clear
Heat Index 102 °F
Dew Point 72 °F
Humidity 50%
Rainfall 0.00 in
Snow Depth Not available.
6:29 AM 8:36 PM
Waning Gibbous, 83% visible
METAR KEHO 231940Z AUTO 00000KT 10SM CLR 34/19 A2998 RMK AO2 T03350194
Pressure 29.98 in
Visibility 10.0 miles
Clouds Clear
Heat Index 102 °F
Dew Point 72 °F
Humidity 50%
Rainfall 0.00 in
Snow Depth Not available.
6:29 AM 8:36 PM
Waning Gibbous, 83% visible
METAR KEHO 231940Z AUTO 00000KT 10SM CLR 34/19 A2998 RMK AO2 T03350194

10-Day Weather Forecast

Almanac

Astronomy

Jul. 23, 2016 Rise Set
Actual Time
Civil Twilight
Nautical Twilight
Astronomical Twilight
Moon
Length of Visible Light
Length of Day
Tomorrow will be .
, % of the Moon is Illuminated

Today's Extremes

State Highs State Lows

Community

WunderPhotos

Upload Photos

1,926,909 photos uploaded!

WunderBlog® & News

Nearby

Air Quality

  Air Quality AQ Index Pollutant
Not available.

Snow Depth

Station Depth Elevation

Earthquake Activity

City Distance Mag. Time & Date
Minimum magnitude displayed is 2.5.

Coastal Water Temperatures

Place Temperature

Stations

Nearby Weather Stations

Station Location Temp. Windchill Dew Point Humidity Wind Precip. Elev Updated Type
                   

Watches & Warnings

There are currently no watches in effect.